Time;durP1;ratioP1;P1;durP2;ratioP2;P2;SDS_P1;SDS_P2;PMS_P1;PMS_P2;Temp;Humidity;BMP_temperature;BMP_pressure;BME280_temperature;BME280_humidity;BME280_pressure;Samples;Min_cycle;Max_cycle;Signal;HPM_P1;HPM_P2
2022/04/23 00:01:39;;;;;;;10.57;6.75;;;11.50;99.90;;;;;;5145636;27;20087;-81
2022/04/23 00:04:05;;;;;;;10.50;6.53;;;11.40;99.90;;;;;;5142310;27;20118;-81
2022/04/23 00:06:31;;;;;;;10.27;6.65;;;11.50;99.90;;;;;;5142914;27;20034;-81
2022/04/23 00:08:57;;;;;;;12.50;6.77;;;11.40;99.90;;;;;;5143194;27;20034;-81
2022/04/23 00:11:23;;;;;;;11.63;6.53;;;11.40;99.90;;;;;;5145501;27;20283;-80
2022/04/23 00:13:48;;;;;;;10.15;6.38;;;11.30;99.90;;;;;;5141323;27;20287;-81
2022/04/23 00:16:15;;;;;;;10.55;6.30;;;11.20;99.90;;;;;;5150702;27;20642;-81
2022/04/23 00:18:42;;;;;;;9.82;6.68;;;11.30;99.90;;;;;;5133959;27;20470;-81
2022/04/23 00:21:08;;;;;;;13.73;6.88;;;11.20;99.90;;;;;;5149633;27;20466;-80
2022/04/23 00:23:34;;;;;;;;;;;11.20;99.90;;;;;;5147516;27;20466;-80
2022/04/23 00:26:01;;;;;;;13.40;7.30;;;11.10;99.90;;;;;;5144109;27;19968;-81
2022/04/23 00:28:27;;;;;;;12.73;7.03;;;11.10;99.90;;;;;;5123901;27;20087;-81
2022/04/23 00:30:52;;;;;;;13.50;6.88;;;11.00;99.90;;;;;;5170130;27;20477;-81
2022/04/23 00:33:19;;;;;;;12.45;6.72;;;11.00;99.90;;;;;;5129505;27;20078;-81
2022/04/23 00:35:46;;;;;;;15.32;7.32;;;11.00;99.90;;;;;;5144712;27;20049;-82
2022/04/23 00:38:11;;;;;;;11.23;7.00;;;11.00;99.90;;;;;;5152602;27;20046;-81
2022/04/23 00:40:39;;;;;;;11.57;7.43;;;10.90;99.90;;;;;;5121961;27;20035;-81
2022/04/23 00:43:10;;;;;;;11.23;7.38;;;10.90;99.90;;;;;;5138253;27;20529;-79
2022/04/23 00:45:36;;;;;;;9.48;7.13;;;10.90;99.90;;;;;;5152354;27;20078;-81
2022/04/23 00:48:02;;;;;;;12.43;7.50;;;10.90;99.90;;;;;;5123948;27;20050;-81
2022/04/23 00:50:28;;;;;;;13.38;7.47;;;10.90;99.90;;;;;;5130980;27;20035;-80
2022/04/23 00:53:02;;;;;;;12.02;7.85;;;10.90;99.90;;;;;;5130923;27;20383;-81
2022/04/23 00:55:30;;;;;;;13.63;8.45;;;10.90;99.90;;;;;;5123227;27;20060;-81
2022/04/23 00:57:57;;;;;;;14.15;8.07;;;10.80;99.90;;;;;;5125971;27;20496;-80
2022/04/23 01:00:23;;;;;;;12.43;8.38;;;10.80;99.90;;;;;;5111105;27;20035;-81
2022/04/23 01:02:48;;;;;;;15.02;8.60;;;10.80;99.90;;;;;;5145965;27;20067;-81
2022/04/23 01:05:14;;;;;;;14.57;8.10;;;10.80;99.90;;;;;;5139894;27;20034;-81
2022/04/23 01:07:44;;;;;;;10.85;8.02;;;10.80;99.90;;;;;;5140357;27;20039;-81
2022/04/23 01:10:10;;;;;;;12.63;8.23;;;10.80;99.90;;;;;;5137776;27;20026;-80
2022/04/23 01:12:36;;;;;;;14.70;8.18;;;10.80;99.90;;;;;;5123122;27;20058;-81
2022/04/23 01:15:04;;;;;;;11.57;7.53;;;10.80;99.90;;;;;;5150007;27;20038;-81
2022/04/23 01:17:30;;;;;;;14.70;9.43;;;10.80;99.90;;;;;;5128134;27;20045;-81
2022/04/23 01:19:56;;;;;;;13.82;8.50;;;10.80;99.90;;;;;;5144978;27;20460;-82
2022/04/23 01:22:26;;;;;;;17.17;8.80;;;10.80;99.90;;;;;;5147213;27;20536;-81
2022/04/23 01:24:52;;;;;;;12.63;8.00;;;10.80;99.90;;;;;;5130097;27;20034;-81
2022/04/23 01:27:18;;;;;;;13.63;8.98;;;10.70;99.90;;;;;;5119864;27;20050;-80
2022/04/23 01:29:45;;;;;;;15.20;9.20;;;10.70;99.90;;;;;;5140432;27;20050;-80
2022/04/23 01:32:10;;;;;;;12.75;9.13;;;10.60;99.90;;;;;;5139617;27;20046;-81
2022/04/23 01:34:36;;;;;;;13.70;8.75;;;10.60;99.90;;;;;;5146285;27;20038;-81
2022/04/23 01:37:02;;;;;;;13.35;9.23;;;10.60;99.90;;;;;;5144116;27;20038;-80
2022/04/23 01:39:28;;;;;;;14.70;9.52;;;10.50;99.90;;;;;;5147820;27;20091;-80
2022/04/23 01:41:54;;;;;;;12.93;9.50;;;10.50;99.90;;;;;;5142384;27;20031;-81
2022/04/23 01:44:20;;;;;;;15.05;9.85;;;10.50;99.90;;;;;;5124542;27;20053;-80
2022/04/23 01:46:45;;;;;;;15.65;9.75;;;10.50;99.90;;;;;;5139223;27;20134;-81
2022/04/23 01:49:11;;;;;;;15.43;9.55;;;10.50;99.90;;;;;;5145258;27;20117;-81
2022/04/23 01:51:37;;;;;;;14.65;10.40;;;10.50;99.90;;;;;;5130356;27;20046;-81
2022/04/23 01:54:02;;;;;;;14.37;9.43;;;10.50;99.90;;;;;;5110464;27;20500;-79
2022/04/23 01:56:28;;;;;;;14.07;9.57;;;10.40;99.90;;;;;;5144696;27;20676;-80
2022/04/23 01:58:54;;;;;;;13.23;9.73;;;10.70;99.90;;;;;;5139359;27;20104;-81
2022/04/23 02:01:19;;;;;;;14.53;9.73;;;10.40;99.90;;;;;;5147577;27;20039;-81
2022/04/23 02:03:45;;;;;;;15.43;10.27;;;10.50;99.90;;;;;;5145084;27;20279;-81
2022/04/23 02:06:12;;;;;;;16.40;10.53;;;10.40;99.90;;;;;;5146518;27;20131;-80
2022/04/23 02:08:38;;;;;;;15.90;9.93;;;10.40;99.90;;;;;;5143943;27;20284;-82
2022/04/23 02:11:04;;;;;;;14.48;10.18;;;10.30;99.90;;;;;;5121021;27;20043;-80
2022/04/23 02:13:31;;;;;;;17.00;10.25;;;10.30;99.90;;;;;;5120721;27;20106;-80
2022/04/23 02:15:57;;;;;;;16.70;10.23;;;10.20;99.90;;;;;;5145532;27;20071;-80
2022/04/23 02:18:25;;;;;;;14.13;10.10;;;10.20;99.90;;;;;;5147214;27;20038;-80
2022/04/23 02:20:51;;;;;;;16.85;10.93;;;10.20;99.90;;;;;;5143974;27;20062;-81
2022/04/23 02:23:16;;;;;;;17.43;10.43;;;10.20;99.90;;;;;;5104163;27;20066;-81
2022/04/23 02:25:42;;;;;;;16.97;10.63;;;10.10;99.90;;;;;;5147522;27;20038;-80
2022/04/23 02:28:08;;;;;;;17.85;11.07;;;10.10;99.90;;;;;;5142646;27;20053;-80
2022/04/23 02:30:34;;;;;;;15.40;10.33;;;10.10;99.90;;;;;;5143093;27;20047;-81
2022/04/23 02:32:59;;;;;;;16.98;10.93;;;10.10;99.90;;;;;;5130151;27;20077;-80
2022/04/23 02:35:26;;;;;;;18.13;11.80;;;10.10;99.90;;;;;;5150928;27;20596;-81
2022/04/23 02:38:00;;;;;;;19.73;10.40;;;10.10;99.90;;;;;;5141199;27;20045;-81
2022/04/23 02:40:25;;;;;;;19.00;12.00;;;10.10;99.90;;;;;;5105120;27;20058;-81
2022/04/23 02:42:51;;;;;;;16.52;10.38;;;10.10;99.90;;;;;;5146806;27;20066;-80
2022/04/23 02:45:20;;;;;;;16.17;10.80;;;10.00;99.90;;;;;;5120614;27;20049;-80
2022/04/23 02:47:52;;;;;;;14.30;11.10;;;10.00;99.90;;;;;;5126588;27;20034;-81
2022/04/23 02:50:26;;;;;;;17.02;11.05;;;10.00;99.90;;;;;;5126071;27;20038;-81
2022/04/23 02:52:55;;;;;;;16.08;10.52;;;10.00;99.90;;;;;;5143704;27;20042;-82
2022/04/23 02:55:21;;;;;;;16.63;10.75;;;10.00;99.90;;;;;;5140620;27;20043;-81
2022/04/23 02:57:48;;;;;;;18.15;10.73;;;10.00;99.90;;;;;;5144802;27;20050;-80
2022/04/23 03:00:14;;;;;;;19.52;10.05;;;10.10;99.90;;;;;;5146157;27;20504;-81
2022/04/23 03:02:40;;;;;;;16.00;10.00;;;10.00;99.90;;;;;;5119144;27;20042;-80
2022/04/23 03:05:08;;;;;;;13.75;9.93;;;10.00;99.90;;;;;;5143710;27;20077;-81
2022/04/23 03:07:35;;;;;;;14.63;10.18;;;10.00;99.90;;;;;;5149437;27;20055;-81
2022/04/23 03:10:01;;;;;;;;;;;10.00;99.90;;;;;;5147229;27;20050;-81
2022/04/23 03:12:27;;;;;;;14.80;10.43;;;9.90;99.90;;;;;;5141247;27;19915;-80
2022/04/23 03:14:53;;;;;;;14.70;9.97;;;10.00;99.90;;;;;;5143664;27;20340;-81
2022/04/23 03:17:19;;;;;;;13.50;9.70;;;10.00;99.90;;;;;;5147780;27;20394;-82
2022/04/23 03:19:46;;;;;;;15.45;10.52;;;10.00;99.90;;;;;;5138360;27;20292;-81
2022/04/23 03:22:15;;;;;;;15.77;10.13;;;9.90;99.90;;;;;;5145245;27;20035;-80
2022/04/23 03:24:41;;;;;;;15.00;10.25;;;9.90;99.90;;;;;;5143575;27;20043;-82
2022/04/23 03:27:06;;;;;;;12.93;9.60;;;9.90;99.90;;;;;;5149022;27;20044;-81
2022/04/23 03:29:33;;;;;;;13.45;9.55;;;10.00;99.90;;;;;;5147111;27;20046;-81
2022/04/23 03:31:59;;;;;;;13.43;9.80;;;9.90;99.90;;;;;;5125734;27;20387;-81
2022/04/23 03:34:24;;;;;;;15.48;10.63;;;9.90;99.90;;;;;;5148805;27;20038;-80
2022/04/23 03:36:50;;;;;;;12.77;9.57;;;9.90;99.90;;;;;;5148804;27;20117;-81
2022/04/23 03:39:16;;;;;;;12.52;9.52;;;9.90;99.90;;;;;;5148717;27;20295;-80
2022/04/23 03:41:42;;;;;;;13.87;9.37;;;9.90;99.90;;;;;;5133848;27;20067;-81
2022/04/23 03:44:07;;;;;;;15.35;10.15;;;9.80;99.90;;;;;;5149756;27;20042;-81
2022/04/23 03:46:33;;;;;;;13.70;9.73;;;9.80;99.90;;;;;;5142227;27;20053;-82
2022/04/23 03:48:59;;;;;;;12.93;9.23;;;9.80;99.90;;;;;;5147502;27;20050;-80
2022/04/23 03:51:24;;;;;;;14.50;10.13;;;9.80;99.90;;;;;;5147017;27;20060;-80
2022/04/23 03:53:50;;;;;;;12.57;10.23;;;9.80;99.90;;;;;;5146088;27;20035;-81
2022/04/23 03:56:16;;;;;;;13.40;9.85;;;9.70;99.90;;;;;;5149153;27;20038;-81
2022/04/23 03:58:42;;;;;;;13.73;9.98;;;9.70;99.90;;;;;;5139324;27;20481;-81
2022/04/23 04:01:08;;;;;;;12.52;9.60;;;9.80;99.90;;;;;;5127038;27;20053;-80
2022/04/23 04:03:34;;;;;;;15.13;10.03;;;9.70;99.90;;;;;;5132726;27;20038;-81
2022/04/23 04:06:00;;;;;;;;;;;9.70;99.90;;;;;;5151262;27;20038;-81
2022/04/23 04:08:26;;;;;;;13.27;9.80;;;9.70;99.90;;;;;;5145590;27;19938;-81
2022/04/23 04:10:52;;;;;;;13.65;10.27;;;9.70;99.90;;;;;;5132118;27;20520;-79
2022/04/23 04:13:18;;;;;;;12.27;9.23;;;9.70;99.90;;;;;;5124209;27;20549;-81
2022/04/23 04:15:44;;;;;;;;;;;9.60;99.90;;;;;;5150612;27;20368;-81
2022/04/23 04:18:11;;;;;;;15.80;10.52;;;9.60;99.90;;;;;;5172157;27;19919;-81
2022/04/23 04:20:39;;;;;;;14.25;10.40;;;9.60;99.90;;;;;;5143870;27;20152;-81
2022/04/23 04:23:06;;;;;;;12.88;10.05;;;9.60;99.90;;;;;;5139430;27;20051;-81
2022/04/23 04:25:32;;;;;;;13.85;10.30;;;9.50;99.90;;;;;;5139711;27;20094;-81
2022/04/23 04:28:01;;;;;;;11.80;9.90;;;9.60;99.90;;;;;;5142382;27;20038;-81
2022/04/23 04:30:27;;;;;;;14.02;10.57;;;9.50;99.90;;;;;;5140609;27;20056;-80
2022/04/23 04:32:53;;;;;;;13.98;10.80;;;9.50;99.90;;;;;;5109744;27;20034;-80
2022/04/23 04:35:19;;;;;;;13.30;9.90;;;9.40;99.90;;;;;;5130119;27;20391;-80
2022/04/23 04:37:44;;;;;;;14.23;10.52;;;9.40;99.90;;;;;;5124214;27;20026;-81
2022/04/23 04:40:11;;;;;;;12.30;9.90;;;9.40;99.90;;;;;;5150855;27;20121;-81
2022/04/23 04:42:37;;;;;;;14.32;10.05;;;9.40;99.90;;;;;;5128335;27;20319;-81
2022/04/23 04:45:04;;;;;;;15.75;10.68;;;9.40;99.90;;;;;;5146828;27;20505;-81
2022/04/23 04:47:30;;;;;;;14.73;10.10;;;9.40;99.90;;;;;;5126544;27;20050;-81
2022/04/23 04:49:56;;;;;;;14.48;10.15;;;9.40;99.90;;;;;;5145110;27;20039;-81
2022/04/23 04:52:22;;;;;;;14.48;10.55;;;9.60;99.90;;;;;;5153538;27;20042;-81
2022/04/23 04:54:48;;;;;;;14.52;10.38;;;9.40;99.90;;;;;;5138323;27;20571;-81
2022/04/23 04:57:14;;;;;;;14.73;10.50;;;9.40;99.90;;;;;;5123160;27;20039;-81
2022/04/23 04:59:39;;;;;;;15.23;10.60;;;9.40;99.90;;;;;;5146389;27;20416;-81
2022/04/23 05:02:05;;;;;;;16.40;10.77;;;9.40;99.90;;;;;;5130964;27;20042;-80
2022/04/23 05:04:31;;;;;;;13.02;10.15;;;9.40;99.90;;;;;;5128383;27;20035;-80
2022/04/23 05:06:57;;;;;;;13.18;9.73;;;9.30;99.90;;;;;;5150768;27;20031;-82
2022/04/23 05:09:23;;;;;;;12.93;10.38;;;9.40;99.90;;;;;;5142606;27;20453;-80
2022/04/23 05:11:49;;;;;;;14.85;10.18;;;9.40;99.90;;;;;;5147481;27;20068;-81
2022/04/23 05:14:16;;;;;;;13.93;10.15;;;9.40;99.90;;;;;;5128879;27;20035;-81
2022/04/23 05:16:43;;;;;;;14.25;10.95;;;9.40;99.90;;;;;;5145254;27;20081;-81
2022/04/23 05:19:09;;;;;;;13.23;9.63;;;9.40;99.90;;;;;;5140378;27;20126;-81
2022/04/23 05:21:34;;;;;;;12.93;9.87;;;9.40;99.90;;;;;;5147493;27;20565;-80
2022/04/23 05:24:00;;;;;;;12.40;10.20;;;9.40;99.90;;;;;;5149949;27;20065;-81
2022/04/23 05:26:26;;;;;;;10.97;9.50;;;9.50;99.90;;;;;;5144389;27;20279;-80
2022/04/23 05:28:52;;;;;;;12.70;9.65;;;9.60;99.90;;;;;;5144627;27;20371;-81
2022/04/23 05:31:17;;;;;;;13.05;10.05;;;9.50;99.90;;;;;;5145947;27;20034;-80
2022/04/23 05:33:43;;;;;;;13.50;9.70;;;9.60;99.90;;;;;;5129860;27;20044;-81
2022/04/23 05:36:09;;;;;;;11.93;8.90;;;9.60;99.90;;;;;;5125785;27;20042;-80
2022/04/23 05:38:35;;;;;;;10.75;9.07;;;9.70;99.90;;;;;;5130098;27;20068;-80
2022/04/23 05:41:01;;;;;;;12.55;10.43;;;9.70;99.90;;;;;;5129345;27;20382;-81
2022/04/23 05:43:26;;;;;;;12.23;9.52;;;9.80;99.90;;;;;;5141257;27;20042;-80
2022/04/23 05:45:52;;;;;;;11.63;9.13;;;9.80;99.90;;;;;;5142345;27;20046;-81
2022/04/23 05:48:18;;;;;;;15.88;10.27;;;9.90;99.90;;;;;;5108048;27;20043;-81
2022/04/23 05:50:43;;;;;;;11.37;9.10;;;9.90;99.90;;;;;;5142125;27;20042;-80
2022/04/23 05:53:11;;;;;;;12.90;9.23;;;10.00;99.90;;;;;;5145107;27;20285;-81
2022/04/23 05:55:36;;;;;;;12.13;9.52;;;10.10;99.90;;;;;;5149775;27;20371;-82
2022/04/23 05:58:02;;;;;;;13.13;9.55;;;10.10;99.90;;;;;;5144163;27;20164;-81
2022/04/23 06:00:28;;;;;;;10.15;8.93;;;10.20;99.90;;;;;;5141528;27;20477;-80
2022/04/23 06:02:54;;;;;;;11.68;8.80;;;10.10;99.90;;;;;;5144505;27;20034;-82
2022/04/23 06:05:20;;;;;;;11.43;9.30;;;10.30;99.90;;;;;;5141505;27;20029;-81
2022/04/23 06:07:45;;;;;;;11.93;9.27;;;10.40;99.90;;;;;;5126577;27;20037;-80
2022/04/23 06:10:11;;;;;;;11.95;8.98;;;10.40;99.90;;;;;;5149742;27;20130;-80
2022/04/23 06:12:37;;;;;;;10.40;8.83;;;10.50;99.90;;;;;;5146165;27;20099;-81
2022/04/23 06:15:03;;;;;;;11.32;8.80;;;10.60;99.90;;;;;;5144143;27;20042;-80
2022/04/23 06:17:29;;;;;;;12.75;8.68;;;10.70;99.90;;;;;;5148660;27;20389;-81
2022/04/23 06:19:55;;;;;;;11.43;8.63;;;10.70;99.90;;;;;;5146451;27;20034;-81
2022/04/23 06:22:22;;;;;;;;;;;10.70;99.90;;;;;;5130146;27;20055;-80
2022/04/23 06:24:47;;;;;;;11.05;8.88;;;10.80;99.90;;;;;;5161989;27;20860;-80
2022/04/23 06:27:13;;;;;;;10.82;8.95;;;10.90;99.90;;;;;;5122331;27;20042;-81
2022/04/23 06:29:40;;;;;;;12.23;8.77;;;11.00;99.90;;;;;;5126572;27;20035;-82
2022/04/23 06:32:06;;;;;;;11.10;8.73;;;11.10;99.90;;;;;;5146189;27;20038;-80
2022/04/23 06:34:34;;;;;;;11.15;8.88;;;11.40;99.90;;;;;;5163886;27;20030;-79
2022/04/23 06:36:59;;;;;;;13.23;8.82;;;11.70;99.90;;;;;;5142708;27;20069;-81
2022/04/23 06:39:25;;;;;;;11.82;9.07;;;11.90;99.90;;;;;;5141765;27;20501;-81
2022/04/23 06:41:50;;;;;;;10.90;8.50;;;12.10;99.90;;;;;;5122200;27;20117;-80
2022/04/23 06:44:16;;;;;;;10.90;8.53;;;12.40;99.90;;;;;;5140841;27;20828;-80
2022/04/23 06:46:42;;;;;;;9.60;8.43;;;12.60;99.90;;;;;;5140583;27;20557;-80
2022/04/23 06:49:07;;;;;;;10.77;8.73;;;12.60;99.90;;;;;;5129290;27;20386;-80
2022/04/23 06:51:33;;;;;;;10.50;8.70;;;12.80;99.90;;;;;;5146728;27;20035;-84
2022/04/23 06:53:59;;;;;;;10.55;8.43;;;13.00;99.90;;;;;;5109641;27;20292;-84
2022/04/23 06:56:26;;;;;;;11.55;8.20;;;13.20;99.90;;;;;;5147634;27;20042;-83
2022/04/23 06:58:52;;;;;;;12.50;8.55;;;13.20;99.90;;;;;;5143199;27;20094;-83
2022/04/23 07:01:18;;;;;;;11.77;8.23;;;13.40;99.90;;;;;;5133459;27;20084;-84
2022/04/23 07:03:43;;;;;;;9.48;7.70;;;13.70;99.90;;;;;;5146634;27;20066;-84
2022/04/23 07:06:11;;;;;;;11.43;8.47;;;13.80;99.90;;;;;;5132072;27;20110;-83
2022/04/23 07:08:39;;;;;;;10.25;8.82;;;13.70;99.90;;;;;;5147220;27;20279;-83
2022/04/23 07:11:05;;;;;;;9.50;7.95;;;13.90;99.90;;;;;;5130723;27;20454;-83
2022/04/23 07:13:30;;;;;;;10.90;7.97;;;13.80;99.90;;;;;;5128318;27;20117;-83
2022/04/23 07:15:56;;;;;;;12.68;8.48;;;14.00;99.90;;;;;;5148869;27;20123;-83
2022/04/23 07:18:22;;;;;;;9.90;8.35;;;14.10;99.90;;;;;;5130994;27;20050;-84
2022/04/23 07:20:47;;;;;;;9.85;7.90;;;14.20;99.90;;;;;;5149965;27;20454;-83
2022/04/23 07:25:57;;;;;;;8.98;7.68;;;14.70;99.90;;;;;;5106516;27;20070;-83
2022/04/23 07:28:22;;;;;;;9.32;8.18;;;14.70;99.90;;;;;;5129222;27;20122;-83
2022/04/23 07:30:48;;;;;;;9.90;8.40;;;14.60;99.90;;;;;;5155417;27;20030;-84
2022/04/23 07:37:28;;;;;;;10.65;7.72;;;14.70;99.90;;;;;;5142627;27;20074;-84
2022/04/23 07:38:44;;;;;;;9.15;7.97;;;14.60;99.90;;;;;;5151194;27;20039;-84
2022/04/23 07:41:11;;;;;;;9.02;7.40;;;14.80;99.90;;;;;;5108801;27;20121;-83
2022/04/23 07:43:37;;;;;;;9.45;7.63;;;15.00;99.90;;;;;;5130137;27;20063;-84
2022/04/23 07:46:03;;;;;;;10.20;7.55;;;15.20;99.90;;;;;;5149204;27;20136;-84
2022/04/23 07:48:29;;;;;;;10.25;7.72;;;15.40;99.90;;;;;;5108646;27;20482;-84
2022/04/23 07:50:54;;;;;;;9.30;7.57;;;15.40;99.90;;;;;;5134874;27;20045;-83
2022/04/23 07:53:20;;;;;;;9.23;7.40;;;15.60;99.90;;;;;;5105983;27;20030;-83
2022/04/23 07:55:46;;;;;;;9.07;7.57;;;15.60;99.90;;;;;;5112855;27;20070;-84
2022/04/23 07:58:12;;;;;;;10.32;7.97;;;15.60;99.90;;;;;;5132792;27;20034;-82
2022/04/23 08:00:43;;;;;;;13.00;7.65;;;15.40;99.90;;;;;;5124626;27;20058;-83
2022/04/23 08:03:09;;;;;;;10.85;7.60;;;15.60;99.90;;;;;;5125534;27;20039;-84
2022/04/23 08:05:35;;;;;;;9.82;7.78;;;15.70;99.90;;;;;;5147380;27;20457;-83
2022/04/23 08:08:01;;;;;;;9.40;7.70;;;16.10;99.90;;;;;;5147646;27;20605;-83
2022/04/23 08:10:27;;;;;;;8.70;7.70;;;16.20;99.90;;;;;;5127319;27;20060;-82
2022/04/23 08:12:54;;;;;;;9.63;8.00;;;16.30;99.90;;;;;;5143361;27;20030;-83
2022/04/23 08:15:20;;;;;;;10.85;7.95;;;16.10;99.90;;;;;;5142971;27;20057;-82
2022/04/23 08:17:47;;;;;;;12.88;7.57;;;16.10;99.90;;;;;;5141093;27;20167;-84
2022/04/23 08:20:13;;;;;;;10.57;7.88;;;16.40;99.90;;;;;;5152779;27;20054;-81
2022/04/23 08:22:39;;;;;;;8.80;7.90;;;16.40;99.90;;;;;;5153866;27;20064;-83
2022/04/23 08:25:05;;;;;;;10.20;7.82;;;16.60;99.80;;;;;;5142961;27;20047;-78
2022/04/23 08:27:45;;;;;;;8.68;7.13;;;16.70;99.80;;;;;;5148811;27;20038;-79
2022/04/23 08:32:55;;;;;;;8.00;7.20;;;16.60;99.20;;;;;;5145547;27;20038;-80
2022/04/23 08:35:20;;;;;;;10.38;8.00;;;16.80;99.50;;;;;;5140701;27;20041;-79
2022/04/23 08:37:46;;;;;;;8.73;7.72;;;16.90;99.30;;;;;;5145777;27;20034;-78
2022/04/23 08:40:12;;;;;;;11.18;8.27;;;17.00;98.90;;;;;;5126801;27;20125;-80
2022/04/23 08:42:39;;;;;;;8.32;7.53;;;16.90;99.20;;;;;;5149917;27;20523;-80
2022/04/23 08:45:07;;;;;;;8.98;8.07;;;17.10;98.40;;;;;;5129047;27;20496;-80
2022/04/23 08:47:36;;;;;;;8.25;7.45;;;17.40;98.80;;;;;;5148343;27;20071;-79
2022/04/23 08:50:05;;;;;;;8.32;7.35;;;17.50;98.00;;;;;;5143349;27;20050;-80
2022/04/23 08:52:32;;;;;;;9.07;7.95;;;17.30;97.50;;;;;;5147802;27;20035;-79
2022/04/23 08:55:06;;;;;;;9.10;7.78;;;17.30;97.90;;;;;;5151952;27;20030;-79
2022/04/23 08:57:32;;;;;;;7.97;7.18;;;17.50;97.40;;;;;;5150607;27;20040;-79
2022/04/23 08:59:59;;;;;;;;;;;17.60;97.60;;;;;;5141288;27;20039;-79
2022/04/23 09:02:26;;;;;;;8.70;7.53;;;17.60;97.10;;;;;;5147517;27;19937;-78
2022/04/23 09:04:53;;;;;;;11.02;7.50;;;17.70;96.40;;;;;;5137720;27;20047;-81
2022/04/23 09:07:25;;;;;;;8.15;7.38;;;17.90;96.30;;;;;;5143105;27;20125;-79
2022/04/23 09:09:52;;;;;;;11.73;8.07;;;18.00;96.30;;;;;;5125226;27;20045;-80
2022/04/23 09:12:19;;;;;;;13.40;8.95;;;17.70;97.30;;;;;;5137863;27;20053;-79
2022/04/23 09:14:46;;;;;;;9.02;7.68;;;17.80;97.30;;;;;;5141527;27;20050;-81
2022/04/23 09:25:37;;;;;;;8.88;7.97;;;19.10;95.00;;;;;;5157426;27;20118;-80
2022/04/23 09:28:23;;;;;;;9.23;8.00;;;19.40;95.20;;;;;;5142583;27;20847;-79
2022/04/23 09:30:59;;;;;;;8.65;7.05;;;19.20;94.00;;;;;;5125147;27;20030;-80
2022/04/23 09:33:41;;;;;;;9.88;7.40;;;19.30;93.40;;;;;;5142204;27;20107;-80
2022/04/23 09:36:07;;;;;;;8.60;7.53;;;19.30;93.90;;;;;;5143943;27;20126;-79
2022/04/23 09:38:33;;;;;;;9.85;7.75;;;19.10;93.50;;;;;;5142754;27;20112;-79
2022/04/23 09:41:15;;;;;;;9.52;8.25;;;19.10;93.30;;;;;;5140598;27;20087;-80
2022/04/23 09:43:48;;;;;;;9.77;7.65;;;18.90;93.70;;;;;;5135654;27;20098;-80
2022/04/23 09:46:14;;;;;;;10.25;7.50;;;19.10;93.50;;;;;;5142286;27;20471;-80
2022/04/23 09:48:43;;;;;;;10.88;6.65;;;19.30;91.70;;;;;;5119416;27;20045;-81
2022/04/23 09:51:24;;;;;;;9.38;6.78;;;19.40;91.30;;;;;;5141567;27;20447;-80
2022/04/23 09:53:53;;;;;;;7.55;6.65;;;19.10;90.90;;;;;;5141470;27;20046;-79
2022/04/23 09:56:21;;;;;;;7.55;6.78;;;19.10;90.90;;;;;;5127022;27;20118;-80
2022/04/23 09:58:47;;;;;;;7.82;6.45;;;18.90;91.30;;;;;;5121613;27;20047;-80
2022/04/23 10:01:13;;;;;;;8.38;6.75;;;19.20;90.40;;;;;;5139212;27;20385;-78
2022/04/23 10:03:44;;;;;;;7.57;6.60;;;19.30;90.50;;;;;;5144504;27;20041;-78
2022/04/23 10:06:11;;;;;;;8.18;7.05;;;19.60;89.80;;;;;;5146363;27;20039;-80
2022/04/23 10:08:43;;;;;;;8.07;7.30;;;19.50;90.70;;;;;;5165280;27;20034;-81
2022/04/23 10:11:23;;;;;;;8.20;6.97;;;19.30;90.20;;;;;;5138471;27;20038;-79
2022/04/23 10:13:55;;;;;;;10.35;7.18;;;19.50;90.50;;;;;;5150595;27;20056;-79
2022/04/23 10:16:22;;;;;;;9.50;6.80;;;20.00;90.60;;;;;;5139292;27;20079;-82
2022/04/23 10:18:48;;;;;;;;;;;19.90;90.30;;;;;;5103179;27;20046;-84
2022/04/23 10:21:21;;;;;;;10.25;7.28;;;20.00;90.60;;;;;;5174713;27;19922;-83
2022/04/23 10:24:08;;;;;;;9.52;7.35;;;20.30;90.40;;;;;;5143252;27;20091;-83
2022/04/23 10:26:42;;;;;;;;;;;20.20;89.70;;;;;;5144135;27;20118;-81
2022/04/23 10:29:10;;;;;;;7.93;6.93;;;20.20;90.30;;;;;;5121529;27;19922;-82
2022/04/23 10:31:37;;;;;;;9.70;7.00;;;20.60;87.10;;;;;;5148187;27;20045;-82
2022/04/23 10:34:04;;;;;;;8.10;6.88;;;20.40;86.50;;;;;;5142573;27;20415;-81
2022/04/23 10:36:30;;;;;;;7.93;6.75;;;20.10;86.60;;;;;;5132193;27;20034;-81
2022/04/23 10:39:19;;;;;;;7.05;6.35;;;20.50;86.50;;;;;;5143539;27;20039;-81
2022/04/23 10:41:45;;;;;;;8.68;7.60;;;20.70;85.20;;;;;;5138494;27;20067;-81
2022/04/23 10:44:10;;;;;;;7.32;6.63;;;21.00;85.70;;;;;;5124256;27;20042;-81
2022/04/23 10:46:45;;;;;;;8.13;6.95;;;21.10;84.60;;;;;;5146498;27;20505;-81
2022/04/23 10:49:15;;;;;;;7.65;6.55;;;20.90;84.90;;;;;;5141120;27;20039;-82
2022/04/23 10:51:52;;;;;;;7.30;6.60;;;21.00;84.00;;;;;;5144235;27;20482;-82
2022/04/23 10:54:21;;;;;;;9.10;6.72;;;20.90;83.60;;;;;;5166886;27;20494;-80
2022/04/23 10:56:53;;;;;;;7.45;6.45;;;21.20;83.20;;;;;;5123887;27;20041;-82
2022/04/23 10:59:36;;;;;;;9.73;6.78;;;21.20;82.40;;;;;;5140718;27;20130;-80
2022/04/23 11:02:06;;;;;;;7.63;6.78;;;21.10;83.60;;;;;;5150006;27;20039;-82
2022/04/23 11:04:32;;;;;;;8.55;7.15;;;21.00;83.40;;;;;;5141102;27;20046;-83
2022/04/23 11:12:27;;;;;;;7.50;6.07;;;21.40;82.20;;;;;;5126558;27;20046;-85
2022/04/23 11:14:55;;;;;;;9.13;6.40;;;21.50;82.50;;;;;;5123419;27;20129;-83
2022/04/23 11:17:49;;;;;;;7.07;6.10;;;21.40;81.40;;;;;;5114898;27;20038;-83
2022/04/23 11:20:26;;;;;;;8.60;6.93;;;21.40;81.40;;;;;;5137929;27;20462;-82
2022/04/23 11:22:52;;;;;;;;;;;21.40;80.80;;;;;;5135720;27;20031;-83
2022/04/23 11:25:17;;;;;;;8.15;6.30;;;21.10;81.30;;;;;;5143271;27;19967;-84
2022/04/23 11:27:48;;;;;;;8.30;6.32;;;21.10;81.10;;;;;;5152509;27;20485;-83
2022/04/23 11:30:14;;;;;;;8.82;6.93;;;21.30;80.70;;;;;;5137601;27;20112;-83
2022/04/23 11:32:39;;;;;;;6.93;6.15;;;21.10;80.30;;;;;;5149964;27;20026;-82
2022/04/23 11:35:07;;;;;;;8.82;6.05;;;20.80;80.40;;;;;;5144599;27;20030;-85
2022/04/23 11:37:33;;;;;;;8.25;6.20;;;20.70;82.20;;;;;;5136049;27;20031;-83
2022/04/23 11:40:13;;;;;;;7.28;6.15;;;20.80;80.70;;;;;;5141247;27;20049;-82
2022/04/23 11:42:44;;;;;;;7.50;5.60;;;21.30;80.00;;;;;;5129239;27;20424;-84
2022/04/23 11:45:11;;;;;;;7.57;6.78;;;21.80;79.80;;;;;;5137546;27;20079;-79
2022/04/23 11:47:37;;;;;;;8.25;6.60;;;21.60;80.50;;;;;;5102618;28;20049;-80
2022/04/23 11:50:22;;;;;;;8.45;6.63;;;21.70;78.80;;;;;;5118409;28;20047;-80
2022/04/23 11:52:59;;;;;;;9.00;7.35;;;21.40;79.50;;;;;;5121488;27;20127;-83
2022/04/23 11:55:27;;;;;;;7.30;6.35;;;21.50;79.50;;;;;;5115218;27;20054;-81
2022/04/23 11:57:58;;;;;;;7.30;5.95;;;21.60;79.40;;;;;;5131728;27;20035;-81
2022/04/23 12:00:25;;;;;;;10.70;6.32;;;21.80;79.50;;;;;;5130503;27;20445;-81
2022/04/23 12:02:51;;;;;;;7.57;5.65;;;22.00;79.00;;;;;;5105976;28;20972;-81
2022/04/23 12:05:31;;;;;;;6.43;5.82;;;22.30;77.30;;;;;;5100856;27;20043;-80
2022/04/23 12:07:58;;;;;;;8.20;5.47;;;22.10;78.10;;;;;;5097261;27;20031;-82
2022/04/23 12:10:29;;;;;;;7.35;5.43;;;22.00;77.30;;;;;;5125301;27;20071;-82
2022/04/23 12:12:56;;;;;;;7.15;6.15;;;21.90;78.10;;;;;;5090970;27;20050;-82
2022/04/23 12:15:23;;;;;;;7.45;5.63;;;22.10;77.50;;;;;;5123721;27;20042;-82
2022/04/23 12:17:53;;;;;;;7.13;5.90;;;22.00;76.20;;;;;;5107120;27;20037;-81
2022/04/23 12:20:21;;;;;;;8.02;5.60;;;22.00;77.80;;;;;;5122791;27;20073;-80
2022/04/23 12:23:13;;;;;;;8.32;5.32;;;21.70;77.60;;;;;;5137555;27;20027;-80
2022/04/23 12:25:39;;;;;;;6.35;5.10;;;22.10;76.70;;;;;;5105921;27;20046;-81
2022/04/23 12:42:12;;;;;;;6.28;4.88;;;21.90;74.20;;;;;;5120233;27;20540;-81
2022/04/23 12:44:49;;;;;;;7.20;5.03;;;22.30;75.00;;;;;;5091986;27;20043;-81
2022/04/23 12:47:34;;;;;;;7.30;4.78;;;22.80;75.40;;;;;;5127326;27;20055;-81
2022/04/23 12:50:02;;;;;;;7.28;4.95;;;22.60;74.60;;;;;;5132910;27;20045;-80
2022/04/23 12:52:36;;;;;;;5.05;4.55;;;21.90;75.80;;;;;;5147615;27;20462;-80
2022/04/23 12:55:22;;;;;;;5.78;4.90;;;22.00;74.10;;;;;;5122285;27;20045;-81
2022/04/23 12:57:47;;;;;;;5.65;5.03;;;21.80;74.90;;;;;;5146665;27;20034;-80
2022/04/23 13:00:19;;;;;;;6.35;3.92;;;21.80;74.60;;;;;;5157819;27;20051;-78
2022/04/23 13:02:49;;;;;;;5.13;4.53;;;22.20;74.40;;;;;;5155434;27;20415;-78
2022/04/23 13:05:15;;;;;;;4.97;4.20;;;22.30;74.60;;;;;;5147642;27;20050;-78
2022/04/23 13:10:25;;;;;;;5.70;4.70;;;21.80;75.60;;;;;;5160362;27;20311;-82
2022/04/23 13:12:52;;;;;;;6.07;4.80;;;21.50;73.80;;;;;;5155091;27;20051;-81
2022/04/23 13:15:17;;;;;;;7.47;4.32;;;21.60;73.80;;;;;;5125321;27;20071;-81
2022/04/23 13:17:43;;;;;;;;;;;21.80;74.30;;;;;;5123077;27;20042;-81
2022/04/23 13:20:10;;;;;;;5.53;4.82;;;21.70;72.70;;;;;;5160520;27;20377;-80
2022/04/23 13:22:36;;;;;;;5.68;4.20;;;22.00;72.80;;;;;;5140441;27;20034;-80
2022/04/23 13:25:03;;;;;;;;;;;21.80;73.50;;;;;;5093164;27;20042;-82